createdAt,value
2024-02-02T00:07:54.021Z,26.60
2024-02-02T00:17:54.650Z,29.10
2024-02-02T00:27:55.306Z,30.30
2024-02-02T00:37:55.806Z,25.90
2024-02-02T00:47:56.417Z,25.40
2024-02-02T00:58:04.018Z,31.50
2024-02-02T01:07:57.617Z,28.20
2024-02-02T01:17:58.280Z,54.30
2024-02-02T01:27:58.896Z,28.00
2024-02-02T01:37:59.458Z,26.00
2024-02-02T01:48:00.165Z,31.70
2024-02-02T01:58:00.826Z,26.70
2024-02-02T02:08:01.442Z,31.10
2024-02-02T02:18:02.127Z,27.40
2024-02-02T02:28:02.776Z,27.70
2024-02-02T02:38:03.373Z,27.50
2024-02-02T02:48:04.058Z,30.90
2024-02-02T02:58:04.709Z,28.00
2024-02-02T03:08:05.289Z,27.90
2024-02-02T03:18:05.921Z,30.60
2024-02-02T03:28:06.499Z,26.90
2024-02-02T03:38:07.023Z,29.30
2024-02-02T03:48:07.738Z,37.70
2024-02-02T03:58:08.302Z,32.20
2024-02-02T04:08:08.902Z,31.20
2024-02-02T04:18:09.642Z,28.90
2024-02-02T04:28:10.279Z,31.20
2024-02-02T04:38:10.807Z,29.80
2024-02-02T04:48:11.566Z,29.90
2024-02-02T04:58:12.159Z,30.60
2024-02-02T05:08:12.803Z,32.80
2024-02-02T05:18:13.579Z,30.20
2024-02-02T05:28:14.211Z,29.10
2024-02-02T05:38:14.767Z,30.90
2024-02-02T05:48:15.475Z,25.30
2024-02-02T05:58:16.028Z,28.50
2024-02-02T06:08:16.760Z,27.40
2024-02-02T06:18:17.647Z,28.80
2024-02-02T06:28:17.978Z,28.50
2024-02-02T06:38:18.464Z,29.40
2024-02-02T06:48:19.080Z,29.40
2024-02-02T06:58:26.765Z,30.60
2024-02-02T07:08:20.162Z,31.20
2024-02-02T07:18:21.165Z,27.00
2024-02-02T07:28:21.632Z,28.10
2024-02-02T07:38:22.652Z,27.70
2024-02-02T07:48:22.844Z,31.50
2024-02-02T07:58:23.045Z,32.30
2024-02-02T08:08:23.825Z,31.80
2024-02-02T08:18:24.437Z,31.00
2024-02-02T08:28:24.761Z,28.20
2024-02-02T08:38:25.774Z,28.80
2024-02-02T08:48:26.291Z,26.40
2024-02-02T08:58:26.477Z,26.00
2024-02-02T09:08:27.361Z,27.80
2024-02-02T09:18:28.193Z,25.90
2024-02-02T09:28:29.437Z,28.70
2024-02-02T09:38:29.694Z,27.50
2024-02-02T09:48:31.176Z,26.80
2024-02-02T09:58:31.264Z,23.80
2024-02-02T10:08:31.692Z,23.80
2024-02-02T10:18:32.422Z,22.80
2024-02-02T10:28:33.094Z,21.00
2024-02-02T10:38:33.668Z,24.80
2024-02-02T10:48:34.578Z,39.30
2024-02-02T10:58:34.781Z,24.80
2024-02-02T11:08:35.897Z,19.90
2024-02-02T11:18:36.248Z,16.80
2024-02-02T11:28:36.513Z,15.60
2024-02-02T11:38:37.169Z,16.50
2024-02-02T11:48:38.320Z,17.00
2024-02-02T11:58:38.387Z,16.60
2024-02-02T12:08:39.224Z,21.30
2024-02-02T12:18:39.980Z,22.20
2024-02-02T12:28:41.352Z,21.20
2024-02-02T12:38:41.475Z,18.40
2024-02-02T12:48:42.213Z,19.60
2024-02-02T12:58:43.036Z,21.50
2024-02-02T13:08:43.848Z,30.10
2024-02-02T13:18:44.783Z,42.80
2024-02-02T13:28:45.482Z,34.40
2024-02-02T13:38:45.437Z,24.10
2024-02-02T13:48:46.089Z,21.60
2024-02-02T13:58:46.590Z,24.50
2024-02-02T14:08:47.117Z,26.60
2024-02-02T14:18:47.721Z,29.20
2024-02-02T14:28:48.243Z,24.90
2024-02-02T14:38:49.343Z,21.90
2024-02-02T14:48:49.479Z,26.40
2024-02-02T14:58:49.998Z,23.10
2024-02-02T15:08:50.516Z,23.30
2024-02-02T15:18:51.113Z,29.90
2024-02-02T15:28:51.673Z,25.30
2024-02-02T15:39:06.816Z,22.00
2024-02-02T15:48:54.177Z,22.20
2024-02-02T15:58:53.733Z,26.40
2024-02-02T16:08:54.248Z,24.60
2024-02-02T16:18:54.967Z,23.80
2024-02-02T16:28:55.602Z,24.50
2024-02-02T16:38:56.140Z,24.80
2024-02-02T16:48:56.818Z,25.50
2024-02-02T16:58:57.375Z,32.40
2024-02-02T17:08:57.941Z,28.40
2024-02-02T17:18:58.668Z,28.10
2024-02-02T17:29:03.788Z,29.70
2024-02-02T17:39:00.704Z,33.70
2024-02-02T17:49:00.345Z,34.40
2024-02-02T17:59:00.887Z,30.90
2024-02-02T18:09:01.517Z,31.30
2024-02-02T18:19:02.269Z,32.90
2024-02-02T18:29:02.872Z,27.70
2024-02-02T18:39:03.532Z,28.10
2024-02-02T18:49:04.248Z,24.60
2024-02-02T18:59:12.130Z,25.10
2024-02-02T19:09:05.703Z,22.10
2024-02-02T19:19:06.350Z,22.80
2024-02-02T19:29:06.987Z,20.10
2024-02-02T19:39:07.641Z,20.50
2024-02-02T19:49:11.345Z,19.30
2024-02-02T19:59:08.848Z,18.80
2024-02-02T20:09:09.513Z,19.10
2024-02-02T20:19:10.130Z,21.30
2024-02-02T20:29:10.906Z,23.60
2024-02-02T20:39:11.492Z,22.90
2024-02-02T20:49:12.146Z,21.90
2024-02-02T20:59:12.720Z,21.40
2024-02-02T21:09:13.427Z,20.50
2024-02-02T21:19:14.005Z,18.50
2024-02-02T21:29:14.598Z,18.70
2024-02-02T21:39:15.240Z,18.00
2024-02-02T21:49:15.928Z,20.60
2024-02-02T21:59:16.486Z,17.50
2024-02-02T22:09:17.076Z,16.30
2024-02-02T22:19:17.692Z,17.90
2024-02-02T22:29:18.238Z,20.20
2024-02-02T22:39:18.812Z,17.00
2024-02-02T22:49:19.408Z,19.70
2024-02-02T22:59:19.958Z,19.00
2024-02-02T23:09:20.550Z,16.40
2024-02-02T23:19:21.098Z,15.50
2024-02-02T23:29:21.795Z,15.10
2024-02-02T23:39:22.365Z,15.20
2024-02-02T23:49:22.951Z,15.60
2024-02-02T23:59:23.518Z,15.30
